ESGJ

Jönköping Airport

Jönköping, Sweden
METAR ESGJ 250820Z 25011KT 9999 SCT019 BKN025 07/04 Q0998
Observed Flight Rules
Apr-25 @ 08:20 UTC (24 minutes ago) Marginal Visual Flight Rules
Wind Visibility Clouds
250° at 11 knots 10,000+ meters
  • Scattered at 1,900' AGL
  • Broken at 2,500' AGL
Temperatures Readings
Current 7°C / 45°F
Dewpoint 4°C / 39°F
Humidity 81%
Altimeter 29.47" Hg
Pressure 998 hPa
Elevation 232
METAR ESGJ 250820Z 25011KT 9999 SCT019 BKN025 07/04 Q0998
Observed Flight Rules
Apr-25 @ 08:20 UTC
(24 minutes ago)
MVFR
Wind Visibility
250° at 11 knots 10,000+ meters
Clouds
  • Scattered at 1,900' AGL
  • Broken at 2,500' AGL
Temperature Dewpoint
7°C / 45°F 4°C / 39°F
Humidity Altimeter Pressure
81% 29.47" Hg 998 hPa